Flight Track Log - Related Links

Times and Time Zones

All times are in EST time to prevent confusion due to time zone crossing. See the CNS794 flight status page for this flight to view local times or setup timezone preferences in your user account.

Time Position Orientation Groundspeed Altitude Reporting Facility
EST Latitude Longitude Course Direction KTS MPH feet Rate Location/Type
Wed 09:26:24 AM 41.7047 -70.3053 349° North 129 148 2,500  Level Boston Center
Wed 09:27:25 AM 41.7358 -70.2767 34° Northeast 135 155 4,000 1,475 Climbing Boston Center
Wed 09:28:00 AM 41.9318 -70.5922 350° North  Level Estimated
Wed 09:28:26 AM 41.7731 -70.2456 32° Northeast 152 175 5,500  Level Boston Center
Wed 09:29:00 AM 41.9755 -70.6444 346° North  Level Estimated
Wed 09:29:25 AM 41.8144 -70.2111 32° Northeast 167 192 7,100  Level Boston Center
Wed 09:30:00 AM 42.0277 -70.6090 27° Northeast  Level FlightAware Approximate
Wed 09:30:30 AM 41.8553 -70.1764 32° Northeast 173 199 8,500  Level Boston Center
Wed 09:31:30 AM 41.8983 -70.1394 33° Northeast 179 206 10,100 1,537 Climbing Boston Center
Wed 09:32:31 AM 41.9494 -70.0953 33° Northeast 182 209 11,600 1,438 Climbing Boston Center
Wed 09:33:31 AM 41.9947 -70.0553 33° Northeast 191 220 13,000 1,240 Climbing Boston Center
Wed 09:34:32 AM 42.0361 -70.0433 12° North 188 216 14,100 1,258 Climbing Boston Center
Wed 09:35:35 AM 42.0942 -70.0625 346° North 169 194 15,600 912 Climbing Boston Center
Wed 09:36:37 AM 42.1411 -70.0775 347° North 172 198 16,000 197 Climbing Boston Center
Wed 09:37:37 AM 42.1986 -70.0961 347° North 206 237 16,000  Level Boston Center
Wed 09:38:38 AM 42.2581 -70.1153 347° North 219 252 16,000  Level Boston Center
Wed 09:39:38 AM 42.3186 -70.1353 346° North 223 257 16,000  Level Boston Center
Wed 09:40:42 AM 42.3792 -70.1561 346° North 225 259 16,000  Level Boston Center
Wed 09:41:42 AM 42.4394 -70.1753 347° North 223 257 16,000  Level Boston Center
Wed 09:42:43 AM 42.4989 -70.1953 346° North 222 255 16,000  Level Boston Center
Wed 09:43:44 AM 42.5592 -70.2144 347° North 223 257 16,000  Level Boston Center
Wed 09:44:47 AM 42.6189 -70.2653 328° Northwest 214 246 16,000  Level Boston Center
Wed 09:45:48 AM 42.6517 -70.3317 304° West 213 245 16,000  Level Boston Center
Wed 09:46:48 AM 42.6828 -70.3978 303° West 208 239 16,000 50 Level Boston Center
Wed 09:47:48 AM 42.7161 -70.4708 302° West 211 243 16,100 48 Climbing Boston Center
Wed 09:48:52 AM 42.7475 -70.5394 302° West 214 246 16,100  Level Boston Center
Wed 09:49:53 AM 42.7789 -70.6064 303° West 213 245 16,100  Level Boston Center
Wed 09:50:54 AM 42.8103 -70.6758 302° West 215 247 16,100  Level Boston Center
Wed 09:51:54 AM 42.8447 -70.7486 303° West 216 249 16,100 -50 Level Boston Center
Wed 09:52:55 AM 42.8764 -70.8186 302° West 216 249 16,000 -48 Descending Boston Center
Wed 09:53:59 AM 42.9081 -70.8875 302° West 216 249 16,000  Level Boston Center
Wed 09:54:59 AM 42.9419 -70.9628 302° West 218 251 16,000  Level Boston Center
Wed 09:56:00 AM 42.9736 -71.0311 302° West 215 247 16,000  Level Boston Center
Wed 09:57:02 AM 43.0050 -71.1014 301° West 217 250 16,000  Level Boston Center
Wed 09:58:03 AM 43.0389 -71.1764 302° West 216 249 16,000  Level Boston Center
Wed 09:59:03 AM 43.0711 -71.2442 303° West 215 247 16,000  Level Boston Center
Wed 10:00:05 AM 43.1014 -71.3142 301° West 216 249 16,000  Level Boston Center
Wed 10:01:06 AM 43.1361 -71.3900 302° West 219 252 16,000 49 Level Boston Center
Wed 10:02:07 AM 43.1681 -71.4617 301° West 221 254 16,100 48 Climbing Boston Center
Wed 10:03:10 AM 43.1997 -71.5322 302° West 216 249 16,100  Level Boston Center
Wed 10:04:11 AM 43.2342 -71.6014 304° West 220 253 16,100  Level Boston Center
Wed 10:05:12 AM 43.2786 -71.6700 312° West 222 255 16,100  Level Boston Center
Wed 10:06:12 AM 43.3178 -71.7342 310° West 221 254 16,100  Level Boston Center
Wed 10:07:12 AM 43.3575 -71.7978 311° West 219 252 16,100  Level Boston Center
Wed 10:08:16 AM 43.4011 -71.8678 311° West 225 259 16,100  Level Boston Center
Wed 10:09:17 AM 43.4372 -71.9236 312° West 228 262 16,100  Level Boston Center
Wed 10:10:18 AM 43.4767 -71.9897 309° West 226 260 16,100  Level Boston Center
Wed 10:11:19 AM 43.5175 -72.0561 310° West 227 261 16,100  Level Boston Center
Wed 10:12:20 AM 43.5656 -72.1344 310° West 226 260 16,100  Level Boston Center
Wed 10:13:20 AM 43.6069 -72.2033 310° West 232 267 16,100  Level Boston Center
Wed 10:14:24 AM 43.6461 -72.2686 310° West 225 259 16,100  Level Boston Center
Wed 10:15:24 AM 43.6867 -72.3344 310° West 225 259 16,100  Level Boston Center
Wed 10:16:24 AM 43.7275 -72.4003 311° West 227 261 16,100  Level Boston Center
Wed 10:17:25 AM 43.7669 -72.4675 309° West 226 260 16,100  Level Boston Center
Wed 10:18:28 AM 43.8069 -72.5331 310° West 225 259 16,100  Level Boston Center
Wed 10:19:29 AM 43.8475 -72.5997 310° West 226 260 16,100 -347 Level Boston Center
Wed 10:20:29 AM 43.8947 -72.6836 308° West 237 273 15,400 -850 Descending Boston Center
Wed 10:21:29 AM 43.9383 -72.7556 310° West 244 281 14,400 -629 Descending Boston Center
Wed 10:22:33 AM 43.9806 -72.8250 310° West 240 276 14,100 -145 Descending Boston Center
Wed 10:23:33 AM 44.0233 -72.8975 309° West 225 259 14,100  Level Boston Center
Wed 10:24:34 AM 44.0625 -72.9625 310° West 222 255 14,100  Level Boston Center
Wed 10:25:34 AM 44.1047 -73.0347 309° West 225 259 14,100  Level Boston Center
Wed 10:26:35 AM 44.1439 -73.1000 310° West 224 258 14,100  Level Boston Center
Wed 10:27:38 AM 44.1828 -73.1653 310° West 222 255 14,100 -48 Level Boston Center
Wed 10:28:40 AM 44.2219 -73.2319 309° West 223 257 14,000 -443 Descending Boston Center
Wed 10:29:40 AM 44.2664 -73.3069 310° West 234 269 13,200 -893 Descending Boston Center
Wed 10:30:41 AM 44.3086 -73.3797 309° West 242 278 12,200 -984 Descending Boston Center
Wed 10:31:42 AM 44.3514 -73.4514 310° West 240 276 11,200 -992 Descending Boston Center
Wed 10:32:42 AM 44.3967 -73.5289 309° West 241 277 10,200 -968 Descending Boston Center
Wed 10:33:46 AM 44.4381 -73.6008 309° West 240 276 9,200 -960 Descending Boston Center
Wed 10:34:47 AM 44.4764 -73.6672 309° West 233 268 8,200 -590 Descending Boston Center
Wed 10:35:48 AM 44.5142 -73.7317 309° West 215 247 8,000 -99 Descending Boston Center
Wed 10:36:48 AM 44.5561 -73.8056 309° West 219 252 8,000 50 Level Boston Center
Wed 10:37:48 AM 44.5942 -73.8711 309° West 219 252 8,100 50 Climbing Boston Center
Wed 10:38:49 AM 44.6361 -73.9425 310° West 221 254 8,100 -48 Level Boston Center
Wed 10:39:53 AM 44.6736 -74.0100 308° West 222 255 8,000 -48 Descending Boston Center
Wed 10:40:54 AM 44.7122 -74.0772 309° West 222 255 8,000 -689 Level Boston Center
Wed 10:41:55 AM 44.7531 -74.1503 308° West 225 259 6,600 -1,377 Descending Boston Center

Login

Don't have an account? Register now (free) for customized features, flight alerts, and more!